Green Ridge, MO

3:22 AM CST on December 26, 2014 (GMT -0600)
MOComAgNet | Change Station
CLOSE
Current Station
Personal Weather Station
Location: Green Ridge, MO
Elevation: 910 ft
Nearby Weather Stations

Elev 910 ft 38.62 °N, 93.42 °W | Updated 5 days ago

Partly Cloudy
Partly Cloudy
43 °F
Feels Like 43 °F
N
12
Wind Variable Wind from South
Gusts 16 mph

Today
High -- | Low -- °F
--% Chance of Precip.
Yesterday
High -- | Low -- °F
Precip. -- in
7:30 AM 4:58 PM
Waxing Crescent, 24% visible
Pressure 29.91 in
Visibility 10.0 miles
Clouds Few 20000 ft
Dew Point 36 °F
Humidity 75%
Rainfall -999.00 in
Snow Depth Not available.
UV 0 out of 12
Pollen 3.00 out of 12
Air Quality Not available.
Flu Activity Not available.
METAR KSZL 260858Z AUTO 19013KT 10SM FEW200 07/00 A2989 RMK AO2 SLP126 T00710003 53012 $

More Conditions Fewer Conditions

Pressure 29.91 in
Visibility 10.0 miles
Clouds Few 20000 ft
Dew Point 36 °F
Humidity 75%
Rainfall -999.00 in
Snow Depth Not available.
UV 0 out of 12
Pollen 3.00 out of 12
Air Quality Not available.
Flu Activity Not available.
METAR KSZL 260858Z AUTO 19013KT 10SM FEW200 07/00 A2989 RMK AO2 SLP126 T00710003 53012 $

More Conditions Fewer Conditions

10-Day Weather Forecast

Almanac

Astronomy

Dec. 26, 2014 Rise Set
Actual Time
Civil Twilight
Nautical Twilight
Astronomical Twilight
Moon
Length of Visible Light
Length of Day
Tomorrow will be .
, % of the Moon is Illuminated

Today's Extremes

State Highs State Lows

Community

WunderPhotos

Upload Photos

1,780,568 photos uploaded!

WunderBlogs® & News

Nearby

Air Quality

  Air Quality AQ Index Pollutant
Not available.

Snow Depth

Station Depth Elevation

Earthquake Activity

City Distance Mag. Time & Date
Minimum magnitude displayed is 2.5.

Coastal Water Temperatures

Place Temperature

Nearby Weather Stations